Olema, California
Current Conditions -  °F | °C
As of 6:35 AM on Monday 20 Oct 2014 (Local Time) from KDVO Reporting Station
Broken Clouds Broken Clouds  
Wind Chill: 57°   Ceiling: 5000
Heat Index: 57°   Visibility: 10mi
Dew Point: 57°   Wind: 5mph
Humidity: 100%   Direction: 190°S
Pressure: 29.91"   Gusts: NA
Location:  38.04°N, 122.79°W
Report Text: KDVO 201335Z AUTO 19004KT 10SM FEW011 BKN050 BKN080 14/14 A2991 RMK AO2
Loading
Personal Weather Stations






























Interactive Weather Map
Tropical Storm Tracking
New forecast layout! Learn more

10-Day Weather Forecast

Advertisements
Track Severe Weather on mobile